sensor_id;sensor_type;location;lat;lon;timestamp;P1;durP1;ratioP1;P2;durP2;ratioP2
61036;SDS011;57313;47.040;15.498;2022-07-10T00:01:23;6.40;;;1.52;;
61036;SDS011;57313;47.040;15.498;2022-07-10T00:03:52;6.05;;;1.60;;
61036;SDS011;57313;47.040;15.498;2022-07-10T00:06:19;4.78;;;1.48;;
61036;SDS011;57313;47.040;15.498;2022-07-10T00:08:46;3.90;;;1.40;;
61036;SDS011;57313;47.040;15.498;2022-07-10T00:11:14;6.93;;;1.40;;
61036;SDS011;57313;47.040;15.498;2022-07-10T00:13:41;4.88;;;1.60;;
61036;SDS011;57313;47.040;15.498;2022-07-10T00:16:08;4.53;;;1.50;;
61036;SDS011;57313;47.040;15.498;2022-07-10T00:18:35;4.43;;;1.40;;
61036;SDS011;57313;47.040;15.498;2022-07-10T00:21:05;5.47;;;1.40;;
61036;SDS011;57313;47.040;15.498;2022-07-10T00:23:33;7.18;;;1.65;;
61036;SDS011;57313;47.040;15.498;2022-07-10T00:26:00;4.82;;;1.50;;
61036;SDS011;57313;47.040;15.498;2022-07-10T00:28:27;6.00;;;1.60;;
61036;SDS011;57313;47.040;15.498;2022-07-10T00:30:55;4.68;;;1.48;;
61036;SDS011;57313;47.040;15.498;2022-07-10T00:33:22;4.90;;;1.58;;
61036;SDS011;57313;47.040;15.498;2022-07-10T00:35:49;4.88;;;1.40;;
61036;SDS011;57313;47.040;15.498;2022-07-10T00:38:18;5.13;;;1.40;;
61036;SDS011;57313;47.040;15.498;2022-07-10T00:40:45;5.90;;;1.67;;
61036;SDS011;57313;47.040;15.498;2022-07-10T00:43:12;5.15;;;1.88;;
61036;SDS011;57313;47.040;15.498;2022-07-10T00:45:39;4.57;;;1.50;;
61036;SDS011;57313;47.040;15.498;2022-07-10T00:48:07;4.35;;;1.58;;
61036;SDS011;57313;47.040;15.498;2022-07-10T00:50:34;5.93;;;1.50;;
61036;SDS011;57313;47.040;15.498;2022-07-10T00:53:02;4.47;;;1.40;;
61036;SDS011;57313;47.040;15.498;2022-07-10T00:55:32;7.63;;;1.50;;
61036;SDS011;57313;47.040;15.498;2022-07-10T00:58:01;3.42;;;1.40;;
61036;SDS011;57313;47.040;15.498;2022-07-10T01:00:29;5.70;;;1.52;;
61036;SDS011;57313;47.040;15.498;2022-07-10T01:02:59;6.38;;;1.58;;
61036;SDS011;57313;47.040;15.498;2022-07-10T01:05:26;5.72;;;1.52;;
61036;SDS011;57313;47.040;15.498;2022-07-10T01:07:54;4.90;;;1.52;;
61036;SDS011;57313;47.040;15.498;2022-07-10T01:10:21;5.47;;;1.48;;
61036;SDS011;57313;47.040;15.498;2022-07-10T01:12:50;4.82;;;1.60;;
61036;SDS011;57313;47.040;15.498;2022-07-10T01:15:19;4.32;;;1.58;;
61036;SDS011;57313;47.040;15.498;2022-07-10T01:17:47;5.38;;;1.60;;
61036;SDS011;57313;47.040;15.498;2022-07-10T01:20:14;5.22;;;1.50;;
61036;SDS011;57313;47.040;15.498;2022-07-10T01:22:43;6.60;;;1.60;;
61036;SDS011;57313;47.040;15.498;2022-07-10T01:25:11;5.10;;;1.58;;
61036;SDS011;57313;47.040;15.498;2022-07-10T01:27:39;6.03;;;1.70;;
61036;SDS011;57313;47.040;15.498;2022-07-10T01:30:07;5.15;;;1.65;;
61036;SDS011;57313;47.040;15.498;2022-07-10T01:32:38;5.95;;;1.70;;
61036;SDS011;57313;47.040;15.498;2022-07-10T01:35:07;8.60;;;1.73;;
61036;SDS011;57313;47.040;15.498;2022-07-10T01:37:35;7.68;;;1.90;;
61036;SDS011;57313;47.040;15.498;2022-07-10T01:40:05;5.35;;;1.70;;
61036;SDS011;57313;47.040;15.498;2022-07-10T01:42:34;7.10;;;1.60;;
61036;SDS011;57313;47.040;15.498;2022-07-10T01:45:01;5.82;;;1.92;;
61036;SDS011;57313;47.040;15.498;2022-07-10T01:47:32;4.15;;;1.50;;
61036;SDS011;57313;47.040;15.498;2022-07-10T01:50:00;5.50;;;1.70;;
61036;SDS011;57313;47.040;15.498;2022-07-10T01:52:28;8.15;;;1.90;;
61036;SDS011;57313;47.040;15.498;2022-07-10T01:54:55;5.63;;;1.90;;
61036;SDS011;57313;47.040;15.498;2022-07-10T01:57:23;5.25;;;1.52;;
61036;SDS011;57313;47.040;15.498;2022-07-10T01:59:51;7.88;;;2.05;;
61036;SDS011;57313;47.040;15.498;2022-07-10T02:02:19;5.38;;;1.55;;
61036;SDS011;57313;47.040;15.498;2022-07-10T02:04:46;11.00;;;1.83;;
61036;SDS011;57313;47.040;15.498;2022-07-10T02:07:15;4.95;;;1.63;;
61036;SDS011;57313;47.040;15.498;2022-07-10T02:09:43;7.22;;;1.70;;
61036;SDS011;57313;47.040;15.498;2022-07-10T02:12:11;5.75;;;1.90;;
61036;SDS011;57313;47.040;15.498;2022-07-10T02:14:42;6.50;;;1.70;;
61036;SDS011;57313;47.040;15.498;2022-07-10T02:17:09;4.82;;;1.70;;
61036;SDS011;57313;47.040;15.498;2022-07-10T02:19:37;5.28;;;1.80;;
61036;SDS011;57313;47.040;15.498;2022-07-10T02:22:05;5.95;;;1.80;;
61036;SDS011;57313;47.040;15.498;2022-07-10T02:24:33;4.97;;;1.65;;
61036;SDS011;57313;47.040;15.498;2022-07-10T02:27:00;5.32;;;1.77;;
61036;SDS011;57313;47.040;15.498;2022-07-10T02:29:28;5.80;;;2.03;;
61036;SDS011;57313;47.040;15.498;2022-07-10T02:31:57;7.47;;;1.60;;
61036;SDS011;57313;47.040;15.498;2022-07-10T02:34:24;6.70;;;1.70;;
61036;SDS011;57313;47.040;15.498;2022-07-10T02:36:52;5.70;;;1.95;;
61036;SDS011;57313;47.040;15.498;2022-07-10T02:39:19;5.40;;;1.70;;
61036;SDS011;57313;47.040;15.498;2022-07-10T02:41:47;6.80;;;1.95;;
61036;SDS011;57313;47.040;15.498;2022-07-10T02:44:14;6.65;;;1.80;;
61036;SDS011;57313;47.040;15.498;2022-07-10T02:46:42;5.88;;;1.85;;
61036;SDS011;57313;47.040;15.498;2022-07-10T02:49:11;5.20;;;1.90;;
61036;SDS011;57313;47.040;15.498;2022-07-10T02:51:38;5.53;;;1.80;;
61036;SDS011;57313;47.040;15.498;2022-07-10T02:54:05;6.35;;;1.70;;
61036;SDS011;57313;47.040;15.498;2022-07-10T02:56:33;6.15;;;1.85;;
61036;SDS011;57313;47.040;15.498;2022-07-10T02:59:00;5.03;;;1.75;;
61036;SDS011;57313;47.040;15.498;2022-07-10T03:01:27;6.55;;;2.10;;
61036;SDS011;57313;47.040;15.498;2022-07-10T03:03:55;8.35;;;1.92;;
61036;SDS011;57313;47.040;15.498;2022-07-10T03:06:24;6.97;;;2.80;;
61036;SDS011;57313;47.040;15.498;2022-07-10T03:08:51;5.60;;;1.90;;
61036;SDS011;57313;47.040;15.498;2022-07-10T03:11:18;4.97;;;1.83;;
61036;SDS011;57313;47.040;15.498;2022-07-10T03:13:45;5.38;;;1.80;;
61036;SDS011;57313;47.040;15.498;2022-07-10T03:16:12;6.55;;;2.10;;
61036;SDS011;57313;47.040;15.498;2022-07-10T03:18:40;7.70;;;1.95;;
61036;SDS011;57313;47.040;15.498;2022-07-10T03:21:08;5.20;;;1.92;;
61036;SDS011;57313;47.040;15.498;2022-07-10T03:23:37;5.53;;;1.85;;
61036;SDS011;57313;47.040;15.498;2022-07-10T03:26:05;5.65;;;2.15;;
61036;SDS011;57313;47.040;15.498;2022-07-10T03:28:34;5.43;;;1.90;;
61036;SDS011;57313;47.040;15.498;2022-07-10T03:31:02;5.45;;;1.88;;
61036;SDS011;57313;47.040;15.498;2022-07-10T03:33:30;6.93;;;2.17;;
61036;SDS011;57313;47.040;15.498;2022-07-10T03:35:57;6.05;;;1.70;;
61036;SDS011;57313;47.040;15.498;2022-07-10T03:38:24;6.45;;;2.05;;
61036;SDS011;57313;47.040;15.498;2022-07-10T03:40:53;5.88;;;2.00;;
61036;SDS011;57313;47.040;15.498;2022-07-10T03:43:20;7.25;;;2.10;;
61036;SDS011;57313;47.040;15.498;2022-07-10T03:45:48;6.47;;;1.98;;
61036;SDS011;57313;47.040;15.498;2022-07-10T03:48:15;5.65;;;2.03;;
61036;SDS011;57313;47.040;15.498;2022-07-10T03:50:43;5.22;;;1.88;;
61036;SDS011;57313;47.040;15.498;2022-07-10T03:53:10;7.07;;;2.22;;
61036;SDS011;57313;47.040;15.498;2022-07-10T03:55:38;8.48;;;1.92;;
61036;SDS011;57313;47.040;15.498;2022-07-10T03:58:06;6.10;;;2.00;;
61036;SDS011;57313;47.040;15.498;2022-07-10T04:00:34;6.68;;;2.20;;
61036;SDS011;57313;47.040;15.498;2022-07-10T04:03:03;7.38;;;2.28;;
61036;SDS011;57313;47.040;15.498;2022-07-10T04:05:31;5.55;;;2.10;;
61036;SDS011;57313;47.040;15.498;2022-07-10T04:08:00;5.80;;;1.85;;
61036;SDS011;57313;47.040;15.498;2022-07-10T04:10:28;5.47;;;2.10;;
61036;SDS011;57313;47.040;15.498;2022-07-10T04:12:57;5.78;;;1.70;;
61036;SDS011;57313;47.040;15.498;2022-07-10T04:15:26;5.57;;;2.10;;
61036;SDS011;57313;47.040;15.498;2022-07-10T04:17:54;6.78;;;2.35;;
61036;SDS011;57313;47.040;15.498;2022-07-10T04:20:21;8.02;;;2.58;;
61036;SDS011;57313;47.040;15.498;2022-07-10T04:22:48;6.15;;;2.22;;
61036;SDS011;57313;47.040;15.498;2022-07-10T04:25:16;5.50;;;2.30;;
61036;SDS011;57313;47.040;15.498;2022-07-10T04:27:44;6.78;;;2.30;;
61036;SDS011;57313;47.040;15.498;2022-07-10T04:30:11;10.75;;;2.60;;
61036;SDS011;57313;47.040;15.498;2022-07-10T04:32:40;7.00;;;2.70;;
61036;SDS011;57313;47.040;15.498;2022-07-10T04:35:08;6.88;;;2.40;;
61036;SDS011;57313;47.040;15.498;2022-07-10T04:37:35;6.45;;;2.42;;
61036;SDS011;57313;47.040;15.498;2022-07-10T04:40:02;6.35;;;2.40;;
61036;SDS011;57313;47.040;15.498;2022-07-10T04:42:30;7.35;;;2.72;;
61036;SDS011;57313;47.040;15.498;2022-07-10T04:44:58;8.65;;;2.50;;
61036;SDS011;57313;47.040;15.498;2022-07-10T04:47:26;8.38;;;2.95;;
61036;SDS011;57313;47.040;15.498;2022-07-10T04:49:55;7.70;;;2.53;;
61036;SDS011;57313;47.040;15.498;2022-07-10T04:52:22;6.50;;;2.60;;
61036;SDS011;57313;47.040;15.498;2022-07-10T04:54:49;5.97;;;2.35;;
61036;SDS011;57313;47.040;15.498;2022-07-10T04:57:16;10.05;;;2.58;;
61036;SDS011;57313;47.040;15.498;2022-07-10T04:59:43;5.93;;;2.28;;
61036;SDS011;57313;47.040;15.498;2022-07-10T05:02:11;7.20;;;2.72;;
61036;SDS011;57313;47.040;15.498;2022-07-10T05:04:38;7.03;;;3.05;;
61036;SDS011;57313;47.040;15.498;2022-07-10T05:07:07;6.75;;;2.60;;
61036;SDS011;57313;47.040;15.498;2022-07-10T05:09:34;5.93;;;2.53;;
61036;SDS011;57313;47.040;15.498;2022-07-10T05:12:02;8.25;;;2.88;;
61036;SDS011;57313;47.040;15.498;2022-07-10T05:14:30;6.70;;;2.55;;
61036;SDS011;57313;47.040;15.498;2022-07-10T05:16:57;6.75;;;2.72;;
61036;SDS011;57313;47.040;15.498;2022-07-10T05:19:25;7.43;;;2.78;;
61036;SDS011;57313;47.040;15.498;2022-07-10T05:21:52;6.93;;;2.50;;
61036;SDS011;57313;47.040;15.498;2022-07-10T05:24:21;6.20;;;2.40;;
61036;SDS011;57313;47.040;15.498;2022-07-10T05:26:48;6.93;;;2.55;;
61036;SDS011;57313;47.040;15.498;2022-07-10T05:29:15;7.43;;;2.42;;
61036;SDS011;57313;47.040;15.498;2022-07-10T05:31:43;5.88;;;2.30;;
61036;SDS011;57313;47.040;15.498;2022-07-10T05:34:11;6.20;;;2.33;;
61036;SDS011;57313;47.040;15.498;2022-07-10T05:36:38;7.15;;;2.50;;
61036;SDS011;57313;47.040;15.498;2022-07-10T05:39:06;5.72;;;2.30;;
61036;SDS011;57313;47.040;15.498;2022-07-10T05:41:34;6.65;;;2.47;;
61036;SDS011;57313;47.040;15.498;2022-07-10T05:44:02;8.70;;;2.85;;
61036;SDS011;57313;47.040;15.498;2022-07-10T05:46:29;6.95;;;2.60;;
61036;SDS011;57313;47.040;15.498;2022-07-10T05:48:57;7.28;;;2.63;;
61036;SDS011;57313;47.040;15.498;2022-07-10T05:51:24;7.13;;;2.47;;
61036;SDS011;57313;47.040;15.498;2022-07-10T05:53:57;7.72;;;3.05;;
61036;SDS011;57313;47.040;15.498;2022-07-10T05:56:25;7.15;;;2.60;;
61036;SDS011;57313;47.040;15.498;2022-07-10T05:58:54;9.80;;;2.70;;
61036;SDS011;57313;47.040;15.498;2022-07-10T06:01:21;6.78;;;2.80;;
61036;SDS011;57313;47.040;15.498;2022-07-10T06:03:49;6.50;;;2.60;;
61036;SDS011;57313;47.040;15.498;2022-07-10T06:06:17;7.93;;;2.75;;
61036;SDS011;57313;47.040;15.498;2022-07-10T06:08:45;7.97;;;2.50;;
61036;SDS011;57313;47.040;15.498;2022-07-10T06:11:13;6.47;;;2.80;;
61036;SDS011;57313;47.040;15.498;2022-07-10T06:13:40;6.60;;;2.65;;
61036;SDS011;57313;47.040;15.498;2022-07-10T06:16:08;6.13;;;2.45;;
61036;SDS011;57313;47.040;15.498;2022-07-10T06:18:36;8.75;;;3.08;;
61036;SDS011;57313;47.040;15.498;2022-07-10T06:21:04;5.90;;;2.25;;
61036;SDS011;57313;47.040;15.498;2022-07-10T06:23:31;9.25;;;2.55;;
61036;SDS011;57313;47.040;15.498;2022-07-10T06:25:58;6.65;;;2.60;;
61036;SDS011;57313;47.040;15.498;2022-07-10T06:28:26;8.85;;;2.95;;
61036;SDS011;57313;47.040;15.498;2022-07-10T06:30:54;6.95;;;2.95;;
61036;SDS011;57313;47.040;15.498;2022-07-10T06:33:27;7.55;;;3.00;;
61036;SDS011;57313;47.040;15.498;2022-07-10T06:35:55;7.45;;;2.80;;
61036;SDS011;57313;47.040;15.498;2022-07-10T06:38:24;7.45;;;3.00;;
61036;SDS011;57313;47.040;15.498;2022-07-10T06:40:51;7.38;;;3.13;;
61036;SDS011;57313;47.040;15.498;2022-07-10T06:43:19;8.05;;;2.90;;
61036;SDS011;57313;47.040;15.498;2022-07-10T06:45:46;9.10;;;3.50;;
61036;SDS011;57313;47.040;15.498;2022-07-10T06:48:14;10.10;;;2.95;;
61036;SDS011;57313;47.040;15.498;2022-07-10T06:50:43;10.82;;;3.03;;
61036;SDS011;57313;47.040;15.498;2022-07-10T06:53:11;11.15;;;3.20;;
61036;SDS011;57313;47.040;15.498;2022-07-10T06:55:38;9.82;;;3.38;;
61036;SDS011;57313;47.040;15.498;2022-07-10T06:58:06;9.48;;;3.13;;
61036;SDS011;57313;47.040;15.498;2022-07-10T07:00:33;8.75;;;3.58;;
61036;SDS011;57313;47.040;15.498;2022-07-10T07:03:00;9.20;;;3.00;;
61036;SDS011;57313;47.040;15.498;2022-07-10T07:05:28;9.57;;;2.90;;
61036;SDS011;57313;47.040;15.498;2022-07-10T07:07:56;8.48;;;3.03;;
61036;SDS011;57313;47.040;15.498;2022-07-10T07:10:23;7.13;;;2.95;;
61036;SDS011;57313;47.040;15.498;2022-07-10T07:12:51;7.90;;;3.40;;
61036;SDS011;57313;47.040;15.498;2022-07-10T07:15:21;8.15;;;3.30;;
61036;SDS011;57313;47.040;15.498;2022-07-10T07:17:48;9.95;;;2.95;;
61036;SDS011;57313;47.040;15.498;2022-07-10T07:20:18;8.63;;;2.92;;
61036;SDS011;57313;47.040;15.498;2022-07-10T07:22:47;10.00;;;3.60;;
61036;SDS011;57313;47.040;15.498;2022-07-10T07:25:16;7.43;;;2.97;;
61036;SDS011;57313;47.040;15.498;2022-07-10T07:27:44;8.88;;;2.97;;
61036;SDS011;57313;47.040;15.498;2022-07-10T07:30:12;8.18;;;2.70;;
61036;SDS011;57313;47.040;15.498;2022-07-10T07:32:40;6.47;;;2.58;;
61036;SDS011;57313;47.040;15.498;2022-07-10T07:35:08;10.30;;;3.10;;
61036;SDS011;57313;47.040;15.498;2022-07-10T07:37:38;10.88;;;2.97;;
61036;SDS011;57313;47.040;15.498;2022-07-10T07:40:08;9.73;;;2.75;;
61036;SDS011;57313;47.040;15.498;2022-07-10T07:42:42;7.05;;;2.58;;
61036;SDS011;57313;47.040;15.498;2022-07-10T07:45:09;8.43;;;2.63;;
61036;SDS011;57313;47.040;15.498;2022-07-10T07:47:45;7.40;;;2.80;;
61036;SDS011;57313;47.040;15.498;2022-07-10T07:50:16;6.82;;;2.60;;
61036;SDS011;57313;47.040;15.498;2022-07-10T07:52:46;8.23;;;2.58;;
61036;SDS011;57313;47.040;15.498;2022-07-10T07:55:15;9.10;;;2.33;;
61036;SDS011;57313;47.040;15.498;2022-07-10T07:57:45;8.02;;;2.47;;
61036;SDS011;57313;47.040;15.498;2022-07-10T08:00:14;7.97;;;2.67;;
61036;SDS011;57313;47.040;15.498;2022-07-10T08:02:42;8.15;;;2.50;;
61036;SDS011;57313;47.040;15.498;2022-07-10T08:05:10;9.82;;;2.80;;
61036;SDS011;57313;47.040;15.498;2022-07-10T08:07:38;8.05;;;2.83;;
61036;SDS011;57313;47.040;15.498;2022-07-10T08:10:08;8.00;;;3.00;;
61036;SDS011;57313;47.040;15.498;2022-07-10T08:12:37;6.35;;;2.50;;
61036;SDS011;57313;47.040;15.498;2022-07-10T08:15:07;8.20;;;2.80;;
61036;SDS011;57313;47.040;15.498;2022-07-10T08:17:34;6.55;;;2.22;;
61036;SDS011;57313;47.040;15.498;2022-07-10T08:20:02;6.10;;;2.30;;
61036;SDS011;57313;47.040;15.498;2022-07-10T08:22:31;6.57;;;2.42;;
61036;SDS011;57313;47.040;15.498;2022-07-10T08:24:58;6.93;;;2.30;;
61036;SDS011;57313;47.040;15.498;2022-07-10T08:27:25;6.10;;;2.10;;
61036;SDS011;57313;47.040;15.498;2022-07-10T08:29:52;6.15;;;2.13;;
61036;SDS011;57313;47.040;15.498;2022-07-10T08:32:21;6.88;;;2.10;;
61036;SDS011;57313;47.040;15.498;2022-07-10T08:34:48;8.02;;;1.98;;
61036;SDS011;57313;47.040;15.498;2022-07-10T08:37:15;5.65;;;2.08;;
61036;SDS011;57313;47.040;15.498;2022-07-10T08:39:42;5.05;;;1.70;;
61036;SDS011;57313;47.040;15.498;2022-07-10T08:42:10;4.40;;;1.67;;
61036;SDS011;57313;47.040;15.498;2022-07-10T08:44:38;5.25;;;1.73;;
61036;SDS011;57313;47.040;15.498;2022-07-10T08:47:05;4.85;;;1.70;;
61036;SDS011;57313;47.040;15.498;2022-07-10T08:49:34;4.30;;;1.67;;
61036;SDS011;57313;47.040;15.498;2022-07-10T08:52:03;7.05;;;1.88;;
61036;SDS011;57313;47.040;15.498;2022-07-10T08:54:31;4.82;;;1.60;;
61036;SDS011;57313;47.040;15.498;2022-07-10T08:57:00;4.50;;;1.40;;
61036;SDS011;57313;47.040;15.498;2022-07-10T08:59:29;4.82;;;1.45;;
61036;SDS011;57313;47.040;15.498;2022-07-10T09:01:58;4.43;;;1.50;;
61036;SDS011;57313;47.040;15.498;2022-07-10T09:04:26;4.22;;;1.52;;
61036;SDS011;57313;47.040;15.498;2022-07-10T09:06:56;5.40;;;1.73;;
61036;SDS011;57313;47.040;15.498;2022-07-10T09:09:23;6.47;;;1.58;;
61036;SDS011;57313;47.040;15.498;2022-07-10T09:11:55;5.15;;;1.80;;
61036;SDS011;57313;47.040;15.498;2022-07-10T09:14:24;5.88;;;1.60;;
61036;SDS011;57313;47.040;15.498;2022-07-10T09:17:01;4.60;;;1.70;;
61036;SDS011;57313;47.040;15.498;2022-07-10T09:19:29;4.68;;;1.50;;
61036;SDS011;57313;47.040;15.498;2022-07-10T09:22:01;5.30;;;1.80;;
61036;SDS011;57313;47.040;15.498;2022-07-10T09:24:35;5.32;;;1.92;;
61036;SDS011;57313;47.040;15.498;2022-07-10T09:27:03;4.13;;;1.50;;
61036;SDS011;57313;47.040;15.498;2022-07-10T09:29:31;5.07;;;1.70;;
61036;SDS011;57313;47.040;15.498;2022-07-10T09:32:00;5.25;;;1.60;;
61036;SDS011;57313;47.040;15.498;2022-07-10T09:34:35;4.88;;;1.90;;
61036;SDS011;57313;47.040;15.498;2022-07-10T09:37:25;5.43;;;1.70;;
61036;SDS011;57313;47.040;15.498;2022-07-10T09:39:55;7.25;;;1.80;;
61036;SDS011;57313;47.040;15.498;2022-07-10T09:42:24;5.43;;;1.65;;
61036;SDS011;57313;47.040;15.498;2022-07-10T09:44:54;5.45;;;1.80;;
61036;SDS011;57313;47.040;15.498;2022-07-10T09:47:40;5.00;;;1.65;;
61036;SDS011;57313;47.040;15.498;2022-07-10T09:50:19;5.03;;;1.67;;
61036;SDS011;57313;47.040;15.498;2022-07-10T09:52:50;5.25;;;1.88;;
61036;SDS011;57313;47.040;15.498;2022-07-10T09:55:21;4.18;;;1.50;;
61036;SDS011;57313;47.040;15.498;2022-07-10T09:57:54;5.90;;;1.88;;
61036;SDS011;57313;47.040;15.498;2022-07-10T10:00:24;7.38;;;2.10;;
61036;SDS011;57313;47.040;15.498;2022-07-10T10:02:56;5.60;;;1.98;;
61036;SDS011;57313;47.040;15.498;2022-07-10T10:05:35;4.78;;;1.90;;
61036;SDS011;57313;47.040;15.498;2022-07-10T10:08:09;6.00;;;2.20;;
61036;SDS011;57313;47.040;15.498;2022-07-10T10:10:40;5.68;;;1.88;;
61036;SDS011;57313;47.040;15.498;2022-07-10T10:13:11;4.43;;;1.67;;
61036;SDS011;57313;47.040;15.498;2022-07-10T10:15:42;6.25;;;1.98;;
61036;SDS011;57313;47.040;15.498;2022-07-10T10:18:10;7.03;;;2.00;;
61036;SDS011;57313;47.040;15.498;2022-07-10T10:20:39;6.95;;;2.08;;
61036;SDS011;57313;47.040;15.498;2022-07-10T10:23:12;5.05;;;1.73;;
61036;SDS011;57313;47.040;15.498;2022-07-10T10:25:41;5.40;;;1.65;;
61036;SDS011;57313;47.040;15.498;2022-07-10T10:28:08;4.88;;;1.67;;
61036;SDS011;57313;47.040;15.498;2022-07-10T10:30:43;8.10;;;2.47;;
61036;SDS011;57313;47.040;15.498;2022-07-10T10:36:10;5.72;;;1.70;;
61036;SDS011;57313;47.040;15.498;2022-07-10T10:41:39;5.20;;;1.85;;
61036;SDS011;57313;47.040;15.498;2022-07-10T10:44:20;5.68;;;2.03;;
61036;SDS011;57313;47.040;15.498;2022-07-10T10:46:55;7.00;;;2.80;;
61036;SDS011;57313;47.040;15.498;2022-07-10T10:49:24;5.40;;;1.95;;
61036;SDS011;57313;47.040;15.498;2022-07-10T10:51:58;5.93;;;2.00;;
61036;SDS011;57313;47.040;15.498;2022-07-10T10:54:28;5.13;;;1.70;;
61036;SDS011;57313;47.040;15.498;2022-07-10T10:59:46;5.68;;;2.17;;
61036;SDS011;57313;47.040;15.498;2022-07-10T11:02:21;8.10;;;2.20;;
61036;SDS011;57313;47.040;15.498;2022-07-10T11:04:49;6.40;;;1.85;;
61036;SDS011;57313;47.040;15.498;2022-07-10T11:10:29;7.43;;;2.28;;
61036;SDS011;57313;47.040;15.498;2022-07-10T11:12:58;6.28;;;2.13;;
61036;SDS011;57313;47.040;15.498;2022-07-10T11:15:26;5.93;;;2.20;;
61036;SDS011;57313;47.040;15.498;2022-07-10T11:17:54;5.53;;;2.00;;
61036;SDS011;57313;47.040;15.498;2022-07-10T11:20:22;6.50;;;2.00;;
61036;SDS011;57313;47.040;15.498;2022-07-10T11:22:55;4.32;;;1.73;;
61036;SDS011;57313;47.040;15.498;2022-07-10T11:25:39;5.22;;;1.80;;
61036;SDS011;57313;47.040;15.498;2022-07-10T11:28:10;6.47;;;2.10;;
61036;SDS011;57313;47.040;15.498;2022-07-10T11:30:45;5.10;;;1.90;;
61036;SDS011;57313;47.040;15.498;2022-07-10T11:33:14;4.40;;;1.63;;
61036;SDS011;57313;47.040;15.498;2022-07-10T11:35:44;4.32;;;1.63;;
61036;SDS011;57313;47.040;15.498;2022-07-10T11:38:12;5.45;;;1.90;;
61036;SDS011;57313;47.040;15.498;2022-07-10T11:40:46;5.43;;;1.98;;
61036;SDS011;57313;47.040;15.498;2022-07-10T11:43:13;6.20;;;2.03;;
61036;SDS011;57313;47.040;15.498;2022-07-10T11:45:41;5.93;;;1.98;;
61036;SDS011;57313;47.040;15.498;2022-07-10T11:48:08;5.68;;;1.80;;
61036;SDS011;57313;47.040;15.498;2022-07-10T11:50:44;5.50;;;1.92;;
61036;SDS011;57313;47.040;15.498;2022-07-10T11:53:11;5.45;;;1.90;;
61036;SDS011;57313;47.040;15.498;2022-07-10T11:55:39;6.53;;;2.00;;
61036;SDS011;57313;47.040;15.498;2022-07-10T11:58:15;7.70;;;1.98;;
61036;SDS011;57313;47.040;15.498;2022-07-10T12:00:43;5.45;;;1.80;;
61036;SDS011;57313;47.040;15.498;2022-07-10T12:03:17;5.45;;;1.60;;
61036;SDS011;57313;47.040;15.498;2022-07-10T12:05:52;6.25;;;2.03;;
61036;SDS011;57313;47.040;15.498;2022-07-10T12:08:20;5.45;;;1.90;;
61036;SDS011;57313;47.040;15.498;2022-07-10T12:10:48;4.50;;;1.58;;
61036;SDS011;57313;47.040;15.498;2022-07-10T12:13:16;4.57;;;1.60;;
61036;SDS011;57313;47.040;15.498;2022-07-10T12:15:44;6.07;;;1.95;;
61036;SDS011;57313;47.040;15.498;2022-07-10T12:18:15;6.07;;;1.80;;
61036;SDS011;57313;47.040;15.498;2022-07-10T12:20:44;4.65;;;1.65;;
61036;SDS011;57313;47.040;15.498;2022-07-10T12:23:12;4.18;;;1.52;;
61036;SDS011;57313;47.040;15.498;2022-07-10T12:25:41;6.68;;;1.60;;
61036;SDS011;57313;47.040;15.498;2022-07-10T12:28:10;5.60;;;1.83;;
61036;SDS011;57313;47.040;15.498;2022-07-10T12:30:40;6.20;;;1.90;;
61036;SDS011;57313;47.040;15.498;2022-07-10T12:33:09;8.77;;;1.90;;
61036;SDS011;57313;47.040;15.498;2022-07-10T12:35:47;3.58;;;1.33;;
61036;SDS011;57313;47.040;15.498;2022-07-10T12:38:16;3.83;;;1.48;;
61036;SDS011;57313;47.040;15.498;2022-07-10T12:40:44;4.00;;;1.50;;
61036;SDS011;57313;47.040;15.498;2022-07-10T12:43:12;5.45;;;1.67;;
61036;SDS011;57313;47.040;15.498;2022-07-10T12:48:37;3.40;;;1.20;;
61036;SDS011;57313;47.040;15.498;2022-07-10T12:51:22;4.28;;;1.58;;
61036;SDS011;57313;47.040;15.498;2022-07-10T12:53:50;3.88;;;1.50;;
61036;SDS011;57313;47.040;15.498;2022-07-10T12:56:31;3.92;;;1.30;;
61036;SDS011;57313;47.040;15.498;2022-07-10T12:59:02;4.13;;;1.35;;
61036;SDS011;57313;47.040;15.498;2022-07-10T13:01:42;4.40;;;1.50;;
61036;SDS011;57313;47.040;15.498;2022-07-10T13:04:11;6.10;;;1.50;;
61036;SDS011;57313;47.040;15.498;2022-07-10T13:06:39;5.03;;;1.50;;
61036;SDS011;57313;47.040;15.498;2022-07-10T13:09:22;5.80;;;1.40;;
61036;SDS011;57313;47.040;15.498;2022-07-10T13:11:51;4.55;;;1.50;;
61036;SDS011;57313;47.040;15.498;2022-07-10T13:14:19;3.75;;;1.40;;
61036;SDS011;57313;47.040;15.498;2022-07-10T13:16:48;4.10;;;1.30;;
61036;SDS011;57313;47.040;15.498;2022-07-10T13:19:16;5.60;;;1.50;;
61036;SDS011;57313;47.040;15.498;2022-07-10T13:21:44;4.47;;;1.70;;
61036;SDS011;57313;47.040;15.498;2022-07-10T13:24:11;5.00;;;1.50;;
61036;SDS011;57313;47.040;15.498;2022-07-10T13:26:39;4.45;;;1.50;;
61036;SDS011;57313;47.040;15.498;2022-07-10T13:29:07;3.92;;;1.27;;
61036;SDS011;57313;47.040;15.498;2022-07-10T13:31:35;4.10;;;1.38;;
61036;SDS011;57313;47.040;15.498;2022-07-10T13:34:04;3.53;;;1.27;;
61036;SDS011;57313;47.040;15.498;2022-07-10T13:36:31;3.95;;;1.40;;
61036;SDS011;57313;47.040;15.498;2022-07-10T13:38:58;5.38;;;1.80;;
61036;SDS011;57313;47.040;15.498;2022-07-10T13:41:26;4.88;;;1.40;;
61036;SDS011;57313;47.040;15.498;2022-07-10T13:43:53;4.78;;;1.40;;
61036;SDS011;57313;47.040;15.498;2022-07-10T13:46:21;4.95;;;1.48;;
61036;SDS011;57313;47.040;15.498;2022-07-10T13:48:48;4.95;;;1.55;;
61036;SDS011;57313;47.040;15.498;2022-07-10T13:51:18;4.05;;;1.40;;
61036;SDS011;57313;47.040;15.498;2022-07-10T13:53:45;4.60;;;1.48;;
61036;SDS011;57313;47.040;15.498;2022-07-10T13:56:13;4.93;;;1.40;;
61036;SDS011;57313;47.040;15.498;2022-07-10T13:58:43;4.22;;;1.40;;
61036;SDS011;57313;47.040;15.498;2022-07-10T14:01:10;8.15;;;1.42;;
61036;SDS011;57313;47.040;15.498;2022-07-10T14:03:38;3.58;;;1.33;;
61036;SDS011;57313;47.040;15.498;2022-07-10T14:06:05;5.00;;;1.40;;
61036;SDS011;57313;47.040;15.498;2022-07-10T14:08:34;4.18;;;1.50;;
61036;SDS011;57313;47.040;15.498;2022-07-10T14:11:02;4.50;;;1.50;;
61036;SDS011;57313;47.040;15.498;2022-07-10T14:13:29;4.63;;;1.48;;
61036;SDS011;57313;47.040;15.498;2022-07-10T14:15:57;3.47;;;1.30;;
61036;SDS011;57313;47.040;15.498;2022-07-10T14:18:25;5.65;;;1.40;;
61036;SDS011;57313;47.040;15.498;2022-07-10T14:20:52;5.05;;;1.27;;
61036;SDS011;57313;47.040;15.498;2022-07-10T14:23:19;4.32;;;1.33;;
61036;SDS011;57313;47.040;15.498;2022-07-10T14:25:49;3.92;;;1.30;;
61036;SDS011;57313;47.040;15.498;2022-07-10T14:28:16;3.97;;;1.30;;
61036;SDS011;57313;47.040;15.498;2022-07-10T14:30:44;5.10;;;1.52;;
61036;SDS011;57313;47.040;15.498;2022-07-10T14:33:17;4.13;;;1.45;;
61036;SDS011;57313;47.040;15.498;2022-07-10T14:35:45;2.85;;;1.10;;
61036;SDS011;57313;47.040;15.498;2022-07-10T14:38:12;3.88;;;1.40;;
61036;SDS011;57313;47.040;15.498;2022-07-10T14:40:40;5.10;;;1.40;;
61036;SDS011;57313;47.040;15.498;2022-07-10T14:43:09;4.03;;;1.30;;
61036;SDS011;57313;47.040;15.498;2022-07-10T14:45:36;4.28;;;1.30;;
61036;SDS011;57313;47.040;15.498;2022-07-10T14:48:23;4.03;;;1.40;;
61036;SDS011;57313;47.040;15.498;2022-07-10T14:50:51;4.25;;;1.30;;
61036;SDS011;57313;47.040;15.498;2022-07-10T14:53:18;5.30;;;1.50;;
61036;SDS011;57313;47.040;15.498;2022-07-10T14:55:46;3.72;;;1.30;;
61036;SDS011;57313;47.040;15.498;2022-07-10T14:58:15;4.63;;;1.30;;